<?xml version="1.0" encoding="UTF-8" standalone="no" ?>
<gpx xmlns="http://www.topografix.com/GPX/1/1" xmlns:xsi="http://www.w3.org/2001/XMLSchema-instance" xsi:schemaLocation="http://www.topografix.com/GPX/1/1 http://www.topografix.com/GPX/1/1/gpx.xsd" version="1.1" creator="VisuGPX - https://www.visugpx.com">
  <metadata>
    <name>Gorges du Bès - Du barrage à la centrale du Vergne</name>
    <desc><![CDATA[Super parcours]]></desc>
  </metadata>
  <trk>
    <name><![CDATA[15555527-Gorges du Bès - Du barrage à la centrale du Vergne]]></name>
    <trkseg>
      <trkpt lat="44.8345" lon="3.09405">
        <ele>920</ele>
        <time>2022-09-16T11:54:01Z</time>
      </trkpt>
      <trkpt lat="44.83456" lon="3.09427">
        <ele>924</ele>
        <time>2022-09-16T11:54:23Z</time>
      </trkpt>
      <trkpt lat="44.83456" lon="3.09471">
        <ele>928</ele>
        <time>2022-09-16T11:55:05Z</time>
      </trkpt>
      <trkpt lat="44.83454" lon="3.09487">
        <ele>928</ele>
        <time>2022-09-16T11:55:20Z</time>
      </trkpt>
      <trkpt lat="44.83445" lon="3.095">
        <ele>924</ele>
        <time>2022-09-16T11:55:38Z</time>
      </trkpt>
      <trkpt lat="44.83425" lon="3.09541">
        <ele>915</ele>
        <time>2022-09-16T11:56:25Z</time>
      </trkpt>
      <trkpt lat="44.83425" lon="3.09557">
        <ele>917</ele>
        <time>2022-09-16T11:56:40Z</time>
      </trkpt>
      <trkpt lat="44.8342" lon="3.09572">
        <ele>915</ele>
        <time>2022-09-16T11:56:55Z</time>
      </trkpt>
      <trkpt lat="44.8339" lon="3.09617">
        <ele>916</ele>
        <time>2022-09-16T11:57:54Z</time>
      </trkpt>
      <trkpt lat="44.83366" lon="3.0966">
        <ele>916</ele>
        <time>2022-09-16T11:58:46Z</time>
      </trkpt>
      <trkpt lat="44.8335" lon="3.09708">
        <ele>912</ele>
        <time>2022-09-16T11:59:36Z</time>
      </trkpt>
      <trkpt lat="44.83328" lon="3.09813">
        <ele>901</ele>
        <time>2022-09-16T12:01:19Z</time>
      </trkpt>
      <trkpt lat="44.83315" lon="3.09885">
        <ele>897</ele>
        <time>2022-09-16T12:02:30Z</time>
      </trkpt>
      <trkpt lat="44.83321" lon="3.09906">
        <ele>894</ele>
        <time>2022-09-16T12:02:51Z</time>
      </trkpt>
      <trkpt lat="44.83335" lon="3.09925">
        <ele>892</ele>
        <time>2022-09-16T12:03:17Z</time>
      </trkpt>
      <trkpt lat="44.83356" lon="3.0993">
        <ele>895</ele>
        <time>2022-09-16T12:03:46Z</time>
      </trkpt>
      <trkpt lat="44.83381" lon="3.09928">
        <ele>897</ele>
        <time>2022-09-16T12:04:19Z</time>
      </trkpt>
      <trkpt lat="44.83438" lon="3.09898">
        <ele>902</ele>
        <time>2022-09-16T12:05:40Z</time>
      </trkpt>
      <trkpt lat="44.83458" lon="3.09889">
        <ele>903</ele>
        <time>2022-09-16T12:06:08Z</time>
      </trkpt>
      <trkpt lat="44.83567" lon="3.09885">
        <ele>905</ele>
        <time>2022-09-16T12:08:34Z</time>
      </trkpt>
      <trkpt lat="44.837" lon="3.09883">
        <ele>909</ele>
        <time>2022-09-16T12:11:31Z</time>
      </trkpt>
      <trkpt lat="44.83829" lon="3.09896">
        <ele>901</ele>
        <time>2022-09-16T12:14:24Z</time>
      </trkpt>
      <trkpt lat="44.83931" lon="3.09907">
        <ele>893</ele>
        <time>2022-09-16T12:16:40Z</time>
      </trkpt>
      <trkpt lat="44.83951" lon="3.09911">
        <ele>890</ele>
        <time>2022-09-16T12:17:07Z</time>
      </trkpt>
      <trkpt lat="44.83998" lon="3.09912">
        <ele>888</ele>
        <time>2022-09-16T12:18:10Z</time>
      </trkpt>
      <trkpt lat="44.84029" lon="3.09898">
        <ele>892</ele>
        <time>2022-09-16T12:18:53Z</time>
      </trkpt>
      <trkpt lat="44.84114" lon="3.09779">
        <ele>901</ele>
        <time>2022-09-16T12:21:33Z</time>
      </trkpt>
      <trkpt lat="44.8417" lon="3.09742">
        <ele>896</ele>
        <time>2022-09-16T12:22:56Z</time>
      </trkpt>
      <trkpt lat="44.8421" lon="3.09726">
        <ele>901</ele>
        <time>2022-09-16T12:23:51Z</time>
      </trkpt>
      <trkpt lat="44.84242" lon="3.09709">
        <ele>907</ele>
        <time>2022-09-16T12:24:37Z</time>
      </trkpt>
      <trkpt lat="44.84284" lon="3.09693">
        <ele>918</ele>
        <time>2022-09-16T12:25:35Z</time>
      </trkpt>
      <trkpt lat="44.84325" lon="3.09698">
        <ele>922</ele>
        <time>2022-09-16T12:26:30Z</time>
      </trkpt>
      <trkpt lat="44.84341" lon="3.09707">
        <ele>923</ele>
        <time>2022-09-16T12:26:53Z</time>
      </trkpt>
      <trkpt lat="44.84384" lon="3.09764">
        <ele>922</ele>
        <time>2022-09-16T12:28:12Z</time>
      </trkpt>
      <trkpt lat="44.84419" lon="3.09803">
        <ele>928</ele>
        <time>2022-09-16T12:29:11Z</time>
      </trkpt>
      <trkpt lat="44.84426" lon="3.09802">
        <ele>927</ele>
        <time>2022-09-16T12:29:20Z</time>
      </trkpt>
      <trkpt lat="44.84455" lon="3.09762">
        <ele>932</ele>
        <time>2022-09-16T12:30:15Z</time>
      </trkpt>
      <trkpt lat="44.84456" lon="3.09746">
        <ele>936</ele>
        <time>2022-09-16T12:30:30Z</time>
      </trkpt>
      <trkpt lat="44.84448" lon="3.09679">
        <ele>950</ele>
        <time>2022-09-16T12:31:34Z</time>
      </trkpt>
      <trkpt lat="44.84447" lon="3.09642">
        <ele>958</ele>
        <time>2022-09-16T12:32:09Z</time>
      </trkpt>
      <trkpt lat="44.84456" lon="3.09628">
        <ele>959</ele>
        <time>2022-09-16T12:32:27Z</time>
      </trkpt>
      <trkpt lat="44.84485" lon="3.09589">
        <ele>964</ele>
        <time>2022-09-16T12:33:20Z</time>
      </trkpt>
      <trkpt lat="44.84531" lon="3.09501">
        <ele>966</ele>
        <time>2022-09-16T12:35:04Z</time>
      </trkpt>
      <trkpt lat="44.84559" lon="3.09463">
        <ele>966</ele>
        <time>2022-09-16T12:35:56Z</time>
      </trkpt>
      <trkpt lat="44.84584" lon="3.09434">
        <ele>967</ele>
        <time>2022-09-16T12:36:39Z</time>
      </trkpt>
      <trkpt lat="44.84603" lon="3.09432">
        <ele>965</ele>
        <time>2022-09-16T12:37:04Z</time>
      </trkpt>
      <trkpt lat="44.8464" lon="3.09516">
        <ele>948</ele>
        <time>2022-09-16T12:38:38Z</time>
      </trkpt>
      <trkpt lat="44.8465" lon="3.09529">
        <ele>945</ele>
        <time>2022-09-16T12:38:56Z</time>
      </trkpt>
      <trkpt lat="44.84696" lon="3.09539">
        <ele>945</ele>
        <time>2022-09-16T12:39:58Z</time>
      </trkpt>
      <trkpt lat="44.84722" lon="3.09547">
        <ele>946</ele>
        <time>2022-09-16T12:40:34Z</time>
      </trkpt>
      <trkpt lat="44.84734" lon="3.09557">
        <ele>945</ele>
        <time>2022-09-16T12:40:52Z</time>
      </trkpt>
      <trkpt lat="44.84743" lon="3.09577">
        <ele>942</ele>
        <time>2022-09-16T12:41:15Z</time>
      </trkpt>
      <trkpt lat="44.84755" lon="3.09593">
        <ele>938</ele>
        <time>2022-09-16T12:41:37Z</time>
      </trkpt>
      <trkpt lat="44.84816" lon="3.09618">
        <ele>930</ele>
        <time>2022-09-16T12:43:02Z</time>
      </trkpt>
      <trkpt lat="44.84838" lon="3.09622">
        <ele>929</ele>
        <time>2022-09-16T12:43:31Z</time>
      </trkpt>
      <trkpt lat="44.84859" lon="3.09615">
        <ele>926</ele>
        <time>2022-09-16T12:44:00Z</time>
      </trkpt>
      <trkpt lat="44.84871" lon="3.09593">
        <ele>927</ele>
        <time>2022-09-16T12:44:26Z</time>
      </trkpt>
      <trkpt lat="44.84879" lon="3.09567">
        <ele>927</ele>
        <time>2022-09-16T12:44:53Z</time>
      </trkpt>
      <trkpt lat="44.84886" lon="3.09539">
        <ele>926</ele>
        <time>2022-09-16T12:45:21Z</time>
      </trkpt>
      <trkpt lat="44.84898" lon="3.09489">
        <ele>923</ele>
        <time>2022-09-16T12:46:11Z</time>
      </trkpt>
      <trkpt lat="44.84908" lon="3.09449">
        <ele>919</ele>
        <time>2022-09-16T12:46:51Z</time>
      </trkpt>
      <trkpt lat="44.84906" lon="3.09401">
        <ele>921</ele>
        <time>2022-09-16T12:47:37Z</time>
      </trkpt>
      <trkpt lat="44.8486" lon="3.09332">
        <ele>933</ele>
        <time>2022-09-16T12:49:06Z</time>
      </trkpt>
      <trkpt lat="44.84846" lon="3.09318">
        <ele>935</ele>
        <time>2022-09-16T12:49:29Z</time>
      </trkpt>
      <trkpt lat="44.84827" lon="3.09312">
        <ele>938</ele>
        <time>2022-09-16T12:49:55Z</time>
      </trkpt>
      <trkpt lat="44.84805" lon="3.09317">
        <ele>942</ele>
        <time>2022-09-16T12:50:25Z</time>
      </trkpt>
      <trkpt lat="44.84799" lon="3.09321">
        <ele>943</ele>
        <time>2022-09-16T12:50:34Z</time>
      </trkpt>
      <trkpt lat="44.84794" lon="3.09322">
        <ele>944</ele>
        <time>2022-09-16T12:50:41Z</time>
      </trkpt>
      <trkpt lat="44.84789" lon="3.09317">
        <ele>945</ele>
        <time>2022-09-16T12:50:49Z</time>
      </trkpt>
      <trkpt lat="44.84784" lon="3.09307">
        <ele>945</ele>
        <time>2022-09-16T12:51:00Z</time>
      </trkpt>
      <trkpt lat="44.84784" lon="3.09268">
        <ele>942</ele>
        <time>2022-09-16T12:51:37Z</time>
      </trkpt>
      <trkpt lat="44.84797" lon="3.09271">
        <ele>940</ele>
        <time>2022-09-16T12:51:55Z</time>
      </trkpt>
      <trkpt lat="44.84812" lon="3.09265">
        <ele>937</ele>
        <time>2022-09-16T12:52:16Z</time>
      </trkpt>
      <trkpt lat="44.84825" lon="3.09253">
        <ele>934</ele>
        <time>2022-09-16T12:52:36Z</time>
      </trkpt>
      <trkpt lat="44.8484" lon="3.09233">
        <ele>930</ele>
        <time>2022-09-16T12:53:04Z</time>
      </trkpt>
      <trkpt lat="44.84844" lon="3.09219">
        <ele>929</ele>
        <time>2022-09-16T12:53:18Z</time>
      </trkpt>
      <trkpt lat="44.84843" lon="3.0921">
        <ele>928</ele>
        <time>2022-09-16T12:53:27Z</time>
      </trkpt>
      <trkpt lat="44.8484" lon="3.0919">
        <ele>927</ele>
        <time>2022-09-16T12:53:46Z</time>
      </trkpt>
      <trkpt lat="44.8484" lon="3.09183">
        <ele>926</ele>
        <time>2022-09-16T12:53:53Z</time>
      </trkpt>
      <trkpt lat="44.84842" lon="3.09165">
        <ele>925</ele>
        <time>2022-09-16T12:54:10Z</time>
      </trkpt>
      <trkpt lat="44.84845" lon="3.09156">
        <ele>925</ele>
        <time>2022-09-16T12:54:19Z</time>
      </trkpt>
      <trkpt lat="44.84852" lon="3.09153">
        <ele>926</ele>
        <time>2022-09-16T12:54:29Z</time>
      </trkpt>
      <trkpt lat="44.84863" lon="3.0916">
        <ele>926</ele>
        <time>2022-09-16T12:54:45Z</time>
      </trkpt>
      <trkpt lat="44.84873" lon="3.09168">
        <ele>926</ele>
        <time>2022-09-16T12:55:01Z</time>
      </trkpt>
      <trkpt lat="44.84882" lon="3.09178">
        <ele>927</ele>
        <time>2022-09-16T12:55:16Z</time>
      </trkpt>
      <trkpt lat="44.84889" lon="3.09187">
        <ele>927</ele>
        <time>2022-09-16T12:55:28Z</time>
      </trkpt>
      <trkpt lat="44.84903" lon="3.09196">
        <ele>927</ele>
        <time>2022-09-16T12:55:49Z</time>
      </trkpt>
      <trkpt lat="44.84907" lon="3.09206">
        <ele>927</ele>
        <time>2022-09-16T12:56:00Z</time>
      </trkpt>
      <trkpt lat="44.84915" lon="3.09232">
        <ele>926</ele>
        <time>2022-09-16T12:56:27Z</time>
      </trkpt>
      <trkpt lat="44.84919" lon="3.09252">
        <ele>925</ele>
        <time>2022-09-16T12:56:46Z</time>
      </trkpt>
      <trkpt lat="44.84918" lon="3.09267">
        <ele>924</ele>
        <time>2022-09-16T12:57:01Z</time>
      </trkpt>
      <trkpt lat="44.8492" lon="3.09274">
        <ele>924</ele>
        <time>2022-09-16T12:57:08Z</time>
      </trkpt>
      <trkpt lat="44.84927" lon="3.09284">
        <ele>924</ele>
        <time>2022-09-16T12:57:21Z</time>
      </trkpt>
      <trkpt lat="44.84937" lon="3.09289">
        <ele>926</ele>
        <time>2022-09-16T12:57:35Z</time>
      </trkpt>
      <trkpt lat="44.8495" lon="3.09301">
        <ele>926</ele>
        <time>2022-09-16T12:57:56Z</time>
      </trkpt>
      <trkpt lat="44.84956" lon="3.09306">
        <ele>926</ele>
        <time>2022-09-16T12:58:05Z</time>
      </trkpt>
      <trkpt lat="44.84962" lon="3.09318">
        <ele>926</ele>
        <time>2022-09-16T12:58:19Z</time>
      </trkpt>
      <trkpt lat="44.8497" lon="3.09328">
        <ele>926</ele>
        <time>2022-09-16T12:58:33Z</time>
      </trkpt>
      <trkpt lat="44.84974" lon="3.09341">
        <ele>924</ele>
        <time>2022-09-16T12:58:47Z</time>
      </trkpt>
      <trkpt lat="44.84981" lon="3.09368">
        <ele>916</ele>
        <time>2022-09-16T12:59:14Z</time>
      </trkpt>
      <trkpt lat="44.84991" lon="3.09387">
        <ele>910</ele>
        <time>2022-09-16T12:59:36Z</time>
      </trkpt>
      <trkpt lat="44.84998" lon="3.09395">
        <ele>907</ele>
        <time>2022-09-16T12:59:48Z</time>
      </trkpt>
      <trkpt lat="44.85015" lon="3.09387">
        <ele>908</ele>
        <time>2022-09-16T13:00:12Z</time>
      </trkpt>
      <trkpt lat="44.85029" lon="3.09375">
        <ele>912</ele>
        <time>2022-09-16T13:00:34Z</time>
      </trkpt>
      <trkpt lat="44.85039" lon="3.09371">
        <ele>913</ele>
        <time>2022-09-16T13:00:48Z</time>
      </trkpt>
      <trkpt lat="44.8507" lon="3.09363">
        <ele>915</ele>
        <time>2022-09-16T13:01:30Z</time>
      </trkpt>
      <trkpt lat="44.85082" lon="3.09359">
        <ele>917</ele>
        <time>2022-09-16T13:01:47Z</time>
      </trkpt>
      <trkpt lat="44.85092" lon="3.09356">
        <ele>920</ele>
        <time>2022-09-16T13:02:00Z</time>
      </trkpt>
      <trkpt lat="44.85103" lon="3.09353">
        <ele>922</ele>
        <time>2022-09-16T13:02:15Z</time>
      </trkpt>
      <trkpt lat="44.85122" lon="3.09349">
        <ele>926</ele>
        <time>2022-09-16T13:02:41Z</time>
      </trkpt>
      <trkpt lat="44.85129" lon="3.09358">
        <ele>923</ele>
        <time>2022-09-16T13:02:53Z</time>
      </trkpt>
      <trkpt lat="44.85132" lon="3.09365">
        <ele>920</ele>
        <time>2022-09-16T13:03:01Z</time>
      </trkpt>
      <trkpt lat="44.85134" lon="3.09378">
        <ele>915</ele>
        <time>2022-09-16T13:03:14Z</time>
      </trkpt>
      <trkpt lat="44.85139" lon="3.09386">
        <ele>912</ele>
        <time>2022-09-16T13:03:24Z</time>
      </trkpt>
      <trkpt lat="44.8514" lon="3.09394">
        <ele>909</ele>
        <time>2022-09-16T13:03:32Z</time>
      </trkpt>
      <trkpt lat="44.85144" lon="3.09399">
        <ele>908</ele>
        <time>2022-09-16T13:03:39Z</time>
      </trkpt>
      <trkpt lat="44.85149" lon="3.0941">
        <ele>904</ele>
        <time>2022-09-16T13:03:51Z</time>
      </trkpt>
      <trkpt lat="44.85154" lon="3.09419">
        <ele>902</ele>
        <time>2022-09-16T13:04:02Z</time>
      </trkpt>
      <trkpt lat="44.85156" lon="3.09428">
        <ele>899</ele>
        <time>2022-09-16T13:04:11Z</time>
      </trkpt>
      <trkpt lat="44.85158" lon="3.09443">
        <ele>894</ele>
        <time>2022-09-16T13:04:25Z</time>
      </trkpt>
      <trkpt lat="44.85161" lon="3.0945">
        <ele>892</ele>
        <time>2022-09-16T13:04:33Z</time>
      </trkpt>
      <trkpt lat="44.85163" lon="3.09457">
        <ele>890</ele>
        <time>2022-09-16T13:04:40Z</time>
      </trkpt>
      <trkpt lat="44.85165" lon="3.09469">
        <ele>886</ele>
        <time>2022-09-16T13:04:52Z</time>
      </trkpt>
      <trkpt lat="44.85172" lon="3.09485">
        <ele>881</ele>
        <time>2022-09-16T13:05:10Z</time>
      </trkpt>
      <trkpt lat="44.8518" lon="3.09477">
        <ele>884</ele>
        <time>2022-09-16T13:05:23Z</time>
      </trkpt>
      <trkpt lat="44.8519" lon="3.09474">
        <ele>886</ele>
        <time>2022-09-16T13:05:36Z</time>
      </trkpt>
      <trkpt lat="44.85199" lon="3.09469">
        <ele>888</ele>
        <time>2022-09-16T13:05:49Z</time>
      </trkpt>
      <trkpt lat="44.85206" lon="3.09467">
        <ele>890</ele>
        <time>2022-09-16T13:05:59Z</time>
      </trkpt>
      <trkpt lat="44.85211" lon="3.09462">
        <ele>892</ele>
        <time>2022-09-16T13:06:07Z</time>
      </trkpt>
      <trkpt lat="44.85223" lon="3.09461">
        <ele>893</ele>
        <time>2022-09-16T13:06:23Z</time>
      </trkpt>
      <trkpt lat="44.85229" lon="3.09453">
        <ele>896</ele>
        <time>2022-09-16T13:06:34Z</time>
      </trkpt>
      <trkpt lat="44.85231" lon="3.09445">
        <ele>899</ele>
        <time>2022-09-16T13:06:42Z</time>
      </trkpt>
      <trkpt lat="44.85231" lon="3.09438">
        <ele>902</ele>
        <time>2022-09-16T13:06:49Z</time>
      </trkpt>
      <trkpt lat="44.85231" lon="3.09432">
        <ele>904</ele>
        <time>2022-09-16T13:06:54Z</time>
      </trkpt>
      <trkpt lat="44.8524" lon="3.09417">
        <ele>910</ele>
        <time>2022-09-16T13:07:13Z</time>
      </trkpt>
      <trkpt lat="44.85246" lon="3.09416">
        <ele>911</ele>
        <time>2022-09-16T13:07:21Z</time>
      </trkpt>
      <trkpt lat="44.85253" lon="3.09409">
        <ele>912</ele>
        <time>2022-09-16T13:07:32Z</time>
      </trkpt>
      <trkpt lat="44.85257" lon="3.09398">
        <ele>914</ele>
        <time>2022-09-16T13:07:44Z</time>
      </trkpt>
      <trkpt lat="44.85258" lon="3.09383">
        <ele>919</ele>
        <time>2022-09-16T13:07:58Z</time>
      </trkpt>
      <trkpt lat="44.85268" lon="3.09367">
        <ele>920</ele>
        <time>2022-09-16T13:08:18Z</time>
      </trkpt>
      <trkpt lat="44.85279" lon="3.0936">
        <ele>918</ele>
        <time>2022-09-16T13:08:35Z</time>
      </trkpt>
      <trkpt lat="44.85289" lon="3.09363">
        <ele>914</ele>
        <time>2022-09-16T13:08:48Z</time>
      </trkpt>
      <trkpt lat="44.85297" lon="3.09368">
        <ele>909</ele>
        <time>2022-09-16T13:09:00Z</time>
      </trkpt>
      <trkpt lat="44.85302" lon="3.09375">
        <ele>905</ele>
        <time>2022-09-16T13:09:09Z</time>
      </trkpt>
      <trkpt lat="44.85306" lon="3.09366">
        <ele>907</ele>
        <time>2022-09-16T13:09:19Z</time>
      </trkpt>
      <trkpt lat="44.85317" lon="3.09355">
        <ele>906</ele>
        <time>2022-09-16T13:09:37Z</time>
      </trkpt>
      <trkpt lat="44.85325" lon="3.09342">
        <ele>907</ele>
        <time>2022-09-16T13:09:54Z</time>
      </trkpt>
      <trkpt lat="44.85328" lon="3.0933">
        <ele>910</ele>
        <time>2022-09-16T13:10:06Z</time>
      </trkpt>
      <trkpt lat="44.85331" lon="3.09322">
        <ele>911</ele>
        <time>2022-09-16T13:10:14Z</time>
      </trkpt>
      <trkpt lat="44.85338" lon="3.09309">
        <ele>912</ele>
        <time>2022-09-16T13:10:30Z</time>
      </trkpt>
      <trkpt lat="44.85348" lon="3.09298">
        <ele>912</ele>
        <time>2022-09-16T13:10:47Z</time>
      </trkpt>
      <trkpt lat="44.8536" lon="3.09287">
        <ele>912</ele>
        <time>2022-09-16T13:11:06Z</time>
      </trkpt>
      <trkpt lat="44.8536" lon="3.0928">
        <ele>914</ele>
        <time>2022-09-16T13:11:12Z</time>
      </trkpt>
      <trkpt lat="44.85367" lon="3.09267">
        <ele>917</ele>
        <time>2022-09-16T13:11:28Z</time>
      </trkpt>
      <trkpt lat="44.85376" lon="3.09263">
        <ele>916</ele>
        <time>2022-09-16T13:11:40Z</time>
      </trkpt>
      <trkpt lat="44.85383" lon="3.09274">
        <ele>910</ele>
        <time>2022-09-16T13:11:54Z</time>
      </trkpt>
      <trkpt lat="44.85385" lon="3.09281">
        <ele>906</ele>
        <time>2022-09-16T13:12:01Z</time>
      </trkpt>
      <trkpt lat="44.8539" lon="3.09279">
        <ele>906</ele>
        <time>2022-09-16T13:12:08Z</time>
      </trkpt>
      <trkpt lat="44.85395" lon="3.09266">
        <ele>910</ele>
        <time>2022-09-16T13:12:22Z</time>
      </trkpt>
      <trkpt lat="44.85417" lon="3.09261">
        <ele>906</ele>
        <time>2022-09-16T13:12:52Z</time>
      </trkpt>
      <trkpt lat="44.85435" lon="3.09262">
        <ele>905</ele>
        <time>2022-09-16T13:13:16Z</time>
      </trkpt>
      <trkpt lat="44.85447" lon="3.09261">
        <ele>905</ele>
        <time>2022-09-16T13:13:32Z</time>
      </trkpt>
      <trkpt lat="44.85456" lon="3.09255">
        <ele>908</ele>
        <time>2022-09-16T13:13:46Z</time>
      </trkpt>
      <trkpt lat="44.85476" lon="3.09254">
        <ele>908</ele>
        <time>2022-09-16T13:14:12Z</time>
      </trkpt>
      <trkpt lat="44.85487" lon="3.0925">
        <ele>910</ele>
        <time>2022-09-16T13:14:27Z</time>
      </trkpt>
      <trkpt lat="44.85495" lon="3.09242">
        <ele>913</ele>
        <time>2022-09-16T13:14:40Z</time>
      </trkpt>
      <trkpt lat="44.85504" lon="3.09244">
        <ele>913</ele>
        <time>2022-09-16T13:14:53Z</time>
      </trkpt>
      <trkpt lat="44.85509" lon="3.09255">
        <ele>909</ele>
        <time>2022-09-16T13:15:05Z</time>
      </trkpt>
      <trkpt lat="44.85513" lon="3.09268">
        <ele>903</ele>
        <time>2022-09-16T13:15:18Z</time>
      </trkpt>
      <trkpt lat="44.85522" lon="3.09277">
        <ele>900</ele>
        <time>2022-09-16T13:15:33Z</time>
      </trkpt>
      <trkpt lat="44.85522" lon="3.0929">
        <ele>894</ele>
        <time>2022-09-16T13:15:45Z</time>
      </trkpt>
      <trkpt lat="44.85523" lon="3.09299">
        <ele>889</ele>
        <time>2022-09-16T13:15:54Z</time>
      </trkpt>
      <trkpt lat="44.85531" lon="3.09307">
        <ele>888</ele>
        <time>2022-09-16T13:16:07Z</time>
      </trkpt>
      <trkpt lat="44.85538" lon="3.09295">
        <ele>895</ele>
        <time>2022-09-16T13:16:22Z</time>
      </trkpt>
      <trkpt lat="44.85543" lon="3.09283">
        <ele>902</ele>
        <time>2022-09-16T13:16:35Z</time>
      </trkpt>
      <trkpt lat="44.85545" lon="3.09269">
        <ele>909</ele>
        <time>2022-09-16T13:16:48Z</time>
      </trkpt>
      <trkpt lat="44.85551" lon="3.0926">
        <ele>915</ele>
        <time>2022-09-16T13:17:00Z</time>
      </trkpt>
      <trkpt lat="44.85561" lon="3.09259">
        <ele>917</ele>
        <time>2022-09-16T13:17:14Z</time>
      </trkpt>
      <trkpt lat="44.85564" lon="3.09274">
        <ele>911</ele>
        <time>2022-09-16T13:17:28Z</time>
      </trkpt>
      <trkpt lat="44.85568" lon="3.09296">
        <ele>903</ele>
        <time>2022-09-16T13:17:50Z</time>
      </trkpt>
      <trkpt lat="44.85571" lon="3.09307">
        <ele>899</ele>
        <time>2022-09-16T13:18:01Z</time>
      </trkpt>
      <trkpt lat="44.85581" lon="3.09318">
        <ele>898</ele>
        <time>2022-09-16T13:18:18Z</time>
      </trkpt>
      <trkpt lat="44.85588" lon="3.09325">
        <ele>897</ele>
        <time>2022-09-16T13:18:29Z</time>
      </trkpt>
      <trkpt lat="44.85596" lon="3.09331">
        <ele>897</ele>
        <time>2022-09-16T13:18:41Z</time>
      </trkpt>
      <trkpt lat="44.85608" lon="3.09344">
        <ele>893</ele>
        <time>2022-09-16T13:19:02Z</time>
      </trkpt>
      <trkpt lat="44.85617" lon="3.09345">
        <ele>895</ele>
        <time>2022-09-16T13:19:14Z</time>
      </trkpt>
      <trkpt lat="44.85626" lon="3.0935">
        <ele>894</ele>
        <time>2022-09-16T13:19:27Z</time>
      </trkpt>
      <trkpt lat="44.85639" lon="3.09351">
        <ele>897</ele>
        <time>2022-09-16T13:19:44Z</time>
      </trkpt>
      <trkpt lat="44.85647" lon="3.09351">
        <ele>899</ele>
        <time>2022-09-16T13:19:55Z</time>
      </trkpt>
      <trkpt lat="44.85655" lon="3.09355">
        <ele>899</ele>
        <time>2022-09-16T13:20:06Z</time>
      </trkpt>
      <trkpt lat="44.85664" lon="3.09347">
        <ele>906</ele>
        <time>2022-09-16T13:20:20Z</time>
      </trkpt>
      <trkpt lat="44.85671" lon="3.09336">
        <ele>914</ele>
        <time>2022-09-16T13:20:34Z</time>
      </trkpt>
      <trkpt lat="44.85682" lon="3.09339">
        <ele>914</ele>
        <time>2022-09-16T13:20:49Z</time>
      </trkpt>
      <trkpt lat="44.85687" lon="3.09348">
        <ele>910</ele>
        <time>2022-09-16T13:21:00Z</time>
      </trkpt>
      <trkpt lat="44.85697" lon="3.09345">
        <ele>914</ele>
        <time>2022-09-16T13:21:14Z</time>
      </trkpt>
      <trkpt lat="44.85709" lon="3.09341">
        <ele>918</ele>
        <time>2022-09-16T13:21:30Z</time>
      </trkpt>
      <trkpt lat="44.85718" lon="3.09348">
        <ele>916</ele>
        <time>2022-09-16T13:21:44Z</time>
      </trkpt>
      <trkpt lat="44.85727" lon="3.09354">
        <ele>915</ele>
        <time>2022-09-16T13:21:57Z</time>
      </trkpt>
      <trkpt lat="44.85736" lon="3.0937">
        <ele>910</ele>
        <time>2022-09-16T13:22:16Z</time>
      </trkpt>
      <trkpt lat="44.85747" lon="3.09377">
        <ele>910</ele>
        <time>2022-09-16T13:22:32Z</time>
      </trkpt>
      <trkpt lat="44.85754" lon="3.09385">
        <ele>909</ele>
        <time>2022-09-16T13:22:44Z</time>
      </trkpt>
      <trkpt lat="44.85758" lon="3.09396">
        <ele>907</ele>
        <time>2022-09-16T13:22:56Z</time>
      </trkpt>
      <trkpt lat="44.85759" lon="3.09408">
        <ele>902</ele>
        <time>2022-09-16T13:23:08Z</time>
      </trkpt>
      <trkpt lat="44.85765" lon="3.09415">
        <ele>902</ele>
        <time>2022-09-16T13:23:18Z</time>
      </trkpt>
      <trkpt lat="44.8577" lon="3.09425">
        <ele>898</ele>
        <time>2022-09-16T13:23:30Z</time>
      </trkpt>
      <trkpt lat="44.85776" lon="3.09437">
        <ele>894</ele>
        <time>2022-09-16T13:23:43Z</time>
      </trkpt>
      <trkpt lat="44.85779" lon="3.09454">
        <ele>886</ele>
        <time>2022-09-16T13:24:00Z</time>
      </trkpt>
      <trkpt lat="44.85781" lon="3.09466">
        <ele>881</ele>
        <time>2022-09-16T13:24:12Z</time>
      </trkpt>
      <trkpt lat="44.85786" lon="3.09478">
        <ele>877</ele>
        <time>2022-09-16T13:24:25Z</time>
      </trkpt>
      <trkpt lat="44.85783" lon="3.09488">
        <ele>871</ele>
        <time>2022-09-16T13:24:35Z</time>
      </trkpt>
      <trkpt lat="44.85785" lon="3.09498">
        <ele>866</ele>
        <time>2022-09-16T13:24:45Z</time>
      </trkpt>
      <trkpt lat="44.85799" lon="3.09492">
        <ele>876</ele>
        <time>2022-09-16T13:25:04Z</time>
      </trkpt>
      <trkpt lat="44.85817" lon="3.09488">
        <ele>886</ele>
        <time>2022-09-16T13:25:29Z</time>
      </trkpt>
      <trkpt lat="44.85837" lon="3.09481">
        <ele>897</ele>
        <time>2022-09-16T13:25:56Z</time>
      </trkpt>
      <trkpt lat="44.8585" lon="3.09488">
        <ele>897</ele>
        <time>2022-09-16T13:26:15Z</time>
      </trkpt>
      <trkpt lat="44.85879" lon="3.09498">
        <ele>898</ele>
        <time>2022-09-16T13:26:55Z</time>
      </trkpt>
      <trkpt lat="44.85906" lon="3.09497">
        <ele>904</ele>
        <time>2022-09-16T13:27:31Z</time>
      </trkpt>
      <trkpt lat="44.85922" lon="3.09511">
        <ele>903</ele>
        <time>2022-09-16T13:27:56Z</time>
      </trkpt>
      <trkpt lat="44.85936" lon="3.09512">
        <ele>909</ele>
        <time>2022-09-16T13:28:15Z</time>
      </trkpt>
      <trkpt lat="44.85947" lon="3.09526">
        <ele>910</ele>
        <time>2022-09-16T13:28:34Z</time>
      </trkpt>
      <trkpt lat="44.85961" lon="3.09547">
        <ele>910</ele>
        <time>2022-09-16T13:29:02Z</time>
      </trkpt>
      <trkpt lat="44.85962" lon="3.0956">
        <ele>907</ele>
        <time>2022-09-16T13:29:14Z</time>
      </trkpt>
      <trkpt lat="44.8596" lon="3.09567">
        <ele>903</ele>
        <time>2022-09-16T13:29:21Z</time>
      </trkpt>
      <trkpt lat="44.85954" lon="3.09575">
        <ele>898</ele>
        <time>2022-09-16T13:29:32Z</time>
      </trkpt>
      <trkpt lat="44.8595" lon="3.09584">
        <ele>892</ele>
        <time>2022-09-16T13:29:42Z</time>
      </trkpt>
      <trkpt lat="44.85952" lon="3.09596">
        <ele>890</ele>
        <time>2022-09-16T13:29:54Z</time>
      </trkpt>
      <trkpt lat="44.85958" lon="3.0961">
        <ele>888</ele>
        <time>2022-09-16T13:30:09Z</time>
      </trkpt>
      <trkpt lat="44.85961" lon="3.09619">
        <ele>887</ele>
        <time>2022-09-16T13:30:19Z</time>
      </trkpt>
      <trkpt lat="44.85961" lon="3.09633">
        <ele>883</ele>
        <time>2022-09-16T13:30:32Z</time>
      </trkpt>
      <trkpt lat="44.85962" lon="3.09645">
        <ele>880</ele>
        <time>2022-09-16T13:30:43Z</time>
      </trkpt>
      <trkpt lat="44.85962" lon="3.09654">
        <ele>877</ele>
        <time>2022-09-16T13:30:52Z</time>
      </trkpt>
      <trkpt lat="44.85975" lon="3.09679">
        <ele>877</ele>
        <time>2022-09-16T13:31:21Z</time>
      </trkpt>
      <trkpt lat="44.85986" lon="3.09682">
        <ele>883</ele>
        <time>2022-09-16T13:31:36Z</time>
      </trkpt>
      <trkpt lat="44.86001" lon="3.09684">
        <ele>892</ele>
        <time>2022-09-16T13:31:56Z</time>
      </trkpt>
      <trkpt lat="44.8601" lon="3.0969">
        <ele>894</ele>
        <time>2022-09-16T13:32:10Z</time>
      </trkpt>
      <trkpt lat="44.86019" lon="3.09697">
        <ele>896</ele>
        <time>2022-09-16T13:32:23Z</time>
      </trkpt>
      <trkpt lat="44.86021" lon="3.09706">
        <ele>894</ele>
        <time>2022-09-16T13:32:32Z</time>
      </trkpt>
      <trkpt lat="44.86023" lon="3.09717">
        <ele>890</ele>
        <time>2022-09-16T13:32:43Z</time>
      </trkpt>
      <trkpt lat="44.86028" lon="3.09725">
        <ele>890</ele>
        <time>2022-09-16T13:32:53Z</time>
      </trkpt>
      <trkpt lat="44.86033" lon="3.09733">
        <ele>889</ele>
        <time>2022-09-16T13:33:03Z</time>
      </trkpt>
      <trkpt lat="44.8604" lon="3.09748">
        <ele>887</ele>
        <time>2022-09-16T13:33:20Z</time>
      </trkpt>
      <trkpt lat="44.86048" lon="3.0976">
        <ele>886</ele>
        <time>2022-09-16T13:33:36Z</time>
      </trkpt>
      <trkpt lat="44.86052" lon="3.09772">
        <ele>883</ele>
        <time>2022-09-16T13:33:48Z</time>
      </trkpt>
      <trkpt lat="44.86053" lon="3.09785">
        <ele>878</ele>
        <time>2022-09-16T13:34:01Z</time>
      </trkpt>
      <trkpt lat="44.86063" lon="3.09797">
        <ele>879</ele>
        <time>2022-09-16T13:34:18Z</time>
      </trkpt>
      <trkpt lat="44.8607" lon="3.09798">
        <ele>883</ele>
        <time>2022-09-16T13:34:27Z</time>
      </trkpt>
      <trkpt lat="44.8608" lon="3.09802">
        <ele>888</ele>
        <time>2022-09-16T13:34:41Z</time>
      </trkpt>
      <trkpt lat="44.86084" lon="3.09814">
        <ele>887</ele>
        <time>2022-09-16T13:34:54Z</time>
      </trkpt>
      <trkpt lat="44.86087" lon="3.09831">
        <ele>883</ele>
        <time>2022-09-16T13:35:10Z</time>
      </trkpt>
      <trkpt lat="44.86095" lon="3.0985">
        <ele>879</ele>
        <time>2022-09-16T13:35:31Z</time>
      </trkpt>
      <trkpt lat="44.86105" lon="3.09865">
        <ele>877</ele>
        <time>2022-09-16T13:35:51Z</time>
      </trkpt>
      <trkpt lat="44.86107" lon="3.09874">
        <ele>873</ele>
        <time>2022-09-16T13:36:00Z</time>
      </trkpt>
      <trkpt lat="44.86111" lon="3.09878">
        <ele>874</ele>
        <time>2022-09-16T13:36:06Z</time>
      </trkpt>
      <trkpt lat="44.86116" lon="3.09881">
        <ele>875</ele>
        <time>2022-09-16T13:36:14Z</time>
      </trkpt>
      <trkpt lat="44.86115" lon="3.09896">
        <ele>867</ele>
        <time>2022-09-16T13:36:28Z</time>
      </trkpt>
      <trkpt lat="44.86118" lon="3.09922">
        <ele>856</ele>
        <time>2022-09-16T13:36:53Z</time>
      </trkpt>
      <trkpt lat="44.86123" lon="3.09931">
        <ele>855</ele>
        <time>2022-09-16T13:37:04Z</time>
      </trkpt>
      <trkpt lat="44.86141" lon="3.0994">
        <ele>862</ele>
        <time>2022-09-16T13:37:29Z</time>
      </trkpt>
      <trkpt lat="44.8616" lon="3.09942">
        <ele>872</ele>
        <time>2022-09-16T13:37:54Z</time>
      </trkpt>
      <trkpt lat="44.86184" lon="3.09957">
        <ele>876</ele>
        <time>2022-09-16T13:38:29Z</time>
      </trkpt>
      <trkpt lat="44.86193" lon="3.09979">
        <ele>871</ele>
        <time>2022-09-16T13:38:54Z</time>
      </trkpt>
      <trkpt lat="44.86195" lon="3.09993">
        <ele>866</ele>
        <time>2022-09-16T13:39:07Z</time>
      </trkpt>
      <trkpt lat="44.86192" lon="3.10008">
        <ele>860</ele>
        <time>2022-09-16T13:39:22Z</time>
      </trkpt>
      <trkpt lat="44.86197" lon="3.10021">
        <ele>858</ele>
        <time>2022-09-16T13:39:36Z</time>
      </trkpt>
      <trkpt lat="44.86208" lon="3.10023">
        <ele>861</ele>
        <time>2022-09-16T13:39:51Z</time>
      </trkpt>
      <trkpt lat="44.86243" lon="3.10023">
        <ele>875</ele>
        <time>2022-09-16T13:40:37Z</time>
      </trkpt>
      <trkpt lat="44.86257" lon="3.10032">
        <ele>875</ele>
        <time>2022-09-16T13:40:58Z</time>
      </trkpt>
      <trkpt lat="44.86281" lon="3.1005">
        <ele>873</ele>
        <time>2022-09-16T13:41:34Z</time>
      </trkpt>
      <trkpt lat="44.86292" lon="3.10055">
        <ele>873</ele>
        <time>2022-09-16T13:41:49Z</time>
      </trkpt>
      <trkpt lat="44.86312" lon="3.10059">
        <ele>876</ele>
        <time>2022-09-16T13:42:16Z</time>
      </trkpt>
      <trkpt lat="44.86333" lon="3.10066">
        <ele>877</ele>
        <time>2022-09-16T13:42:45Z</time>
      </trkpt>
      <trkpt lat="44.86355" lon="3.10069">
        <ele>876</ele>
        <time>2022-09-16T13:43:15Z</time>
      </trkpt>
      <trkpt lat="44.86364" lon="3.10061">
        <ele>878</ele>
        <time>2022-09-16T13:43:29Z</time>
      </trkpt>
      <trkpt lat="44.86386" lon="3.10033">
        <ele>888</ele>
        <time>2022-09-16T13:44:08Z</time>
      </trkpt>
      <trkpt lat="44.86393" lon="3.10012">
        <ele>894</ele>
        <time>2022-09-16T13:44:30Z</time>
      </trkpt>
      <trkpt lat="44.86406" lon="3.09984">
        <ele>901</ele>
        <time>2022-09-16T13:45:02Z</time>
      </trkpt>
      <trkpt lat="44.86428" lon="3.09957">
        <ele>908</ele>
        <time>2022-09-16T13:45:41Z</time>
      </trkpt>
      <trkpt lat="44.86436" lon="3.09959">
        <ele>908</ele>
        <time>2022-09-16T13:45:52Z</time>
      </trkpt>
      <trkpt lat="44.86445" lon="3.09954">
        <ele>911</ele>
        <time>2022-09-16T13:46:05Z</time>
      </trkpt>
      <trkpt lat="44.86453" lon="3.09959">
        <ele>911</ele>
        <time>2022-09-16T13:46:16Z</time>
      </trkpt>
      <trkpt lat="44.8646" lon="3.09968">
        <ele>911</ele>
        <time>2022-09-16T13:46:29Z</time>
      </trkpt>
      <trkpt lat="44.86466" lon="3.09987">
        <ele>909</ele>
        <time>2022-09-16T13:46:49Z</time>
      </trkpt>
      <trkpt lat="44.86468" lon="3.10007">
        <ele>905</ele>
        <time>2022-09-16T13:47:08Z</time>
      </trkpt>
      <trkpt lat="44.86472" lon="3.1002">
        <ele>901</ele>
        <time>2022-09-16T13:47:21Z</time>
      </trkpt>
      <trkpt lat="44.86474" lon="3.1004">
        <ele>894</ele>
        <time>2022-09-16T13:47:40Z</time>
      </trkpt>
      <trkpt lat="44.86484" lon="3.10066">
        <ele>885</ele>
        <time>2022-09-16T13:48:08Z</time>
      </trkpt>
      <trkpt lat="44.86489" lon="3.10081">
        <ele>880</ele>
        <time>2022-09-16T13:48:24Z</time>
      </trkpt>
      <trkpt lat="44.86515" lon="3.10101">
        <ele>877</ele>
        <time>2022-09-16T13:49:04Z</time>
      </trkpt>
      <trkpt lat="44.8654" lon="3.10103">
        <ele>881</ele>
        <time>2022-09-16T13:49:37Z</time>
      </trkpt>
      <trkpt lat="44.86558" lon="3.10094">
        <ele>887</ele>
        <time>2022-09-16T13:50:02Z</time>
      </trkpt>
      <trkpt lat="44.86558" lon="3.10085">
        <ele>891</ele>
        <time>2022-09-16T13:50:11Z</time>
      </trkpt>
      <trkpt lat="44.86578" lon="3.10084">
        <ele>895</ele>
        <time>2022-09-16T13:50:38Z</time>
      </trkpt>
      <trkpt lat="44.86597" lon="3.10086">
        <ele>897</ele>
        <time>2022-09-16T13:51:03Z</time>
      </trkpt>
      <trkpt lat="44.86615" lon="3.1009">
        <ele>898</ele>
        <time>2022-09-16T13:51:27Z</time>
      </trkpt>
      <trkpt lat="44.86645" lon="3.10108">
        <ele>897</ele>
        <time>2022-09-16T13:52:11Z</time>
      </trkpt>
      <trkpt lat="44.86662" lon="3.10125">
        <ele>894</ele>
        <time>2022-09-16T13:52:39Z</time>
      </trkpt>
      <trkpt lat="44.86673" lon="3.10127">
        <ele>895</ele>
        <time>2022-09-16T13:52:53Z</time>
      </trkpt>
      <trkpt lat="44.86685" lon="3.10126">
        <ele>896</ele>
        <time>2022-09-16T13:53:10Z</time>
      </trkpt>
      <trkpt lat="44.86699" lon="3.10126">
        <ele>898</ele>
        <time>2022-09-16T13:53:28Z</time>
      </trkpt>
      <trkpt lat="44.86717" lon="3.10126">
        <ele>900</ele>
        <time>2022-09-16T13:53:52Z</time>
      </trkpt>
      <trkpt lat="44.86726" lon="3.10138">
        <ele>898</ele>
        <time>2022-09-16T13:54:09Z</time>
      </trkpt>
      <trkpt lat="44.86739" lon="3.10149">
        <ele>896</ele>
        <time>2022-09-16T13:54:29Z</time>
      </trkpt>
      <trkpt lat="44.86753" lon="3.10169">
        <ele>891</ele>
        <time>2022-09-16T13:54:56Z</time>
      </trkpt>
      <trkpt lat="44.86763" lon="3.10185">
        <ele>886</ele>
        <time>2022-09-16T13:55:16Z</time>
      </trkpt>
      <trkpt lat="44.86772" lon="3.10205">
        <ele>879</ele>
        <time>2022-09-16T13:55:38Z</time>
      </trkpt>
      <trkpt lat="44.86774" lon="3.10216">
        <ele>876</ele>
        <time>2022-09-16T13:55:49Z</time>
      </trkpt>
      <trkpt lat="44.86777" lon="3.10226">
        <ele>873</ele>
        <time>2022-09-16T13:55:59Z</time>
      </trkpt>
      <trkpt lat="44.86782" lon="3.10239">
        <ele>868</ele>
        <time>2022-09-16T13:56:13Z</time>
      </trkpt>
      <trkpt lat="44.86787" lon="3.10247">
        <ele>865</ele>
        <time>2022-09-16T13:56:23Z</time>
      </trkpt>
      <trkpt lat="44.86799" lon="3.10245">
        <ele>864</ele>
        <time>2022-09-16T13:56:39Z</time>
      </trkpt>
      <trkpt lat="44.86804" lon="3.10241">
        <ele>864</ele>
        <time>2022-09-16T13:56:47Z</time>
      </trkpt>
      <trkpt lat="44.86817" lon="3.10239">
        <ele>862</ele>
        <time>2022-09-16T13:57:04Z</time>
      </trkpt>
      <trkpt lat="44.86823" lon="3.1025">
        <ele>858</ele>
        <time>2022-09-16T13:57:18Z</time>
      </trkpt>
      <trkpt lat="44.86834" lon="3.10256">
        <ele>853</ele>
        <time>2022-09-16T13:57:33Z</time>
      </trkpt>
      <trkpt lat="44.86842" lon="3.10255">
        <ele>850</ele>
        <time>2022-09-16T13:57:44Z</time>
      </trkpt>
      <trkpt lat="44.86847" lon="3.1025">
        <ele>850</ele>
        <time>2022-09-16T13:57:52Z</time>
      </trkpt>
      <trkpt lat="44.86854" lon="3.10241">
        <ele>849</ele>
        <time>2022-09-16T13:58:05Z</time>
      </trkpt>
      <trkpt lat="44.86864" lon="3.10232">
        <ele>848</ele>
        <time>2022-09-16T13:58:21Z</time>
      </trkpt>
      <trkpt lat="44.86871" lon="3.10221">
        <ele>849</ele>
        <time>2022-09-16T13:58:35Z</time>
      </trkpt>
      <trkpt lat="44.86881" lon="3.10219">
        <ele>846</ele>
        <time>2022-09-16T13:58:48Z</time>
      </trkpt>
      <trkpt lat="44.86876" lon="3.10238">
        <ele>841</ele>
        <time>2022-09-16T13:59:07Z</time>
      </trkpt>
      <trkpt lat="44.86877" lon="3.10266">
        <ele>830</ele>
        <time>2022-09-16T13:59:34Z</time>
      </trkpt>
      <trkpt lat="44.86891" lon="3.10255">
        <ele>827</ele>
        <time>2022-09-16T13:59:55Z</time>
      </trkpt>
      <trkpt lat="44.869" lon="3.10239">
        <ele>829</ele>
        <time>2022-09-16T14:00:15Z</time>
      </trkpt>
      <trkpt lat="44.86909" lon="3.1024">
        <ele>825</ele>
        <time>2022-09-16T14:00:27Z</time>
      </trkpt>
      <trkpt lat="44.86935" lon="3.10234">
        <ele>814</ele>
        <time>2022-09-16T14:01:02Z</time>
      </trkpt>
      <trkpt lat="44.86942" lon="3.1024">
        <ele>807</ele>
        <time>2022-09-16T14:01:13Z</time>
      </trkpt>
      <trkpt lat="44.86948" lon="3.10234">
        <ele>807</ele>
        <time>2022-09-16T14:01:22Z</time>
      </trkpt>
      <trkpt lat="44.86952" lon="3.10236">
        <ele>803</ele>
        <time>2022-09-16T14:01:28Z</time>
      </trkpt>
      <trkpt lat="44.8694" lon="3.10247">
        <ele>805</ele>
        <time>2022-09-16T14:01:47Z</time>
      </trkpt>
      <trkpt lat="44.86936" lon="3.10253">
        <ele>805</ele>
        <time>2022-09-16T14:01:55Z</time>
      </trkpt>
      <trkpt lat="44.86931" lon="3.10257">
        <ele>807</ele>
        <time>2022-09-16T14:02:03Z</time>
      </trkpt>
      <trkpt lat="44.86926" lon="3.1027">
        <ele>805</ele>
        <time>2022-09-16T14:02:17Z</time>
      </trkpt>
      <trkpt lat="44.86923" lon="3.10286">
        <ele>802</ele>
        <time>2022-09-16T14:02:32Z</time>
      </trkpt>
      <trkpt lat="44.86922" lon="3.10306">
        <ele>796</ele>
        <time>2022-09-16T14:02:51Z</time>
      </trkpt>
    </trkseg>
  </trk>
</gpx>